Time;durP1;ratioP1;P1;durP2;ratioP2;P2;SDS_P1;SDS_P2;PMS_P1;PMS_P2;Temp;Humidity;BMP_temperature;BMP_pressure;BME280_temperature;BME280_humidity;BME280_pressure;Samples;Min_cycle;Max_cycle;Signal;HPM_P1;HPM_P2
2021/08/03 00:01:24;;;;;;;6.47;3.10;;;16.80;99.90;;;16.63;80.80;101160.28;4185022;28;20029;-76
2021/08/03 00:03:40;;;;;;;6.75;2.90;;;16.80;99.90;;;16.65;79.81;101160.94;4168846;28;20547;-76
2021/08/03 00:05:50;;;;;;;3.25;2.30;;;16.80;99.90;;;16.55;80.60;101153.22;4167518;28;20104;-76
2021/08/03 00:08:01;;;;;;;7.18;3.03;;;16.80;99.90;;;16.66;80.87;101167.91;4152087;28;20034;-76
2021/08/03 00:10:06;;;;;;;5.90;2.75;;;16.90;99.90;;;16.59;81.42;101163.31;4174595;28;20489;-76
2021/08/03 00:12:11;;;;;;;5.05;2.80;;;16.90;99.90;;;16.70;81.85;101177.16;4169523;28;20025;-76
2021/08/03 00:14:13;;;;;;;5.10;2.45;;;16.90;99.90;;;16.62;82.15;101166.63;4168339;28;20037;-75
2021/08/03 00:16:15;;;;;;;3.40;2.72;;;16.90;99.90;;;16.59;82.31;101162.50;4169608;28;20025;-75
2021/08/03 00:18:17;;;;;;;4.82;2.72;;;16.80;99.90;;;16.44;82.81;101156.31;4169753;28;20021;-75
2021/08/03 00:20:19;;;;;;;5.15;2.35;;;16.80;99.90;;;16.50;82.38;101161.72;4168046;28;20471;-76
2021/08/03 00:22:24;;;;;;;3.47;3.13;;;16.70;99.90;;;16.32;83.33;101161.28;4184810;28;20025;-76
2021/08/03 00:24:25;;;;;;;3.47;2.80;;;16.70;99.90;;;16.14;83.89;101144.81;4168200;28;20026;-76
2021/08/03 00:26:27;;;;;;;4.05;2.75;;;16.60;99.90;;;16.15;84.12;101151.81;4160979;28;20107;-76
2021/08/03 00:28:28;;;;;;;3.20;2.83;;;16.60;99.90;;;16.07;84.13;101143.88;4168115;28;20030;-75
2021/08/03 00:30:29;;;;;;;3.95;2.58;;;16.60;99.90;;;16.01;84.71;101136.63;4169157;28;20033;-76
2021/08/03 00:32:30;;;;;;;6.05;3.30;;;16.50;99.90;;;16.06;84.27;101134.28;4168092;28;20025;-75
2021/08/03 00:34:31;;;;;;;6.15;3.10;;;16.50;99.90;;;16.22;84.36;101147.41;4184311;28;20381;-76
2021/08/03 00:36:32;;;;;;;3.95;2.90;;;16.50;99.90;;;16.19;84.39;101141.63;4169379;28;20056;-75
2021/08/03 00:38:33;;;;;;;3.38;2.88;;;16.50;99.90;;;16.18;84.70;101135.47;4169264;28;20109;-76
2021/08/03 00:40:40;;;;;;;5.22;3.25;;;16.50;99.90;;;16.23;84.71;101133.09;4167959;28;20029;-76
2021/08/03 00:42:41;;;;;;;4.00;2.85;;;16.50;99.90;;;16.21;84.96;101126.28;4151749;28;20103;-76
2021/08/03 00:44:52;;;;;;;5.32;2.92;;;16.50;99.90;;;16.25;84.63;101128.41;4151538;28;20054;-76
2021/08/03 00:46:52;;;;;;;4.70;2.65;;;16.60;99.90;;;16.19;84.77;101129.13;4167919;28;20129;-76
2021/08/03 00:48:53;;;;;;;4.18;2.90;;;16.60;99.90;;;16.24;84.68;101129.44;4167079;28;20497;-76
2021/08/03 00:50:54;;;;;;;4.05;3.08;;;16.60;99.90;;;16.34;84.42;101135.28;4169222;28;20060;-76
2021/08/03 00:52:56;;;;;;;2.97;2.60;;;16.50;99.90;;;16.25;84.64;101133.72;4167512;28;20049;-76
2021/08/03 00:54:57;;;;;;;5.35;3.10;;;16.60;99.90;;;16.24;84.60;101133.91;4167623;28;20025;-76
2021/08/03 00:56:59;;;;;;;3.75;2.50;;;16.50;99.90;;;16.28;84.09;101124.53;4168997;28;20507;-76
2021/08/03 00:59:00;;;;;;;4.25;2.65;;;16.60;99.90;;;16.37;84.36;101140.25;4151186;28;20029;-76
2021/08/03 01:01:01;;;;;;;4.88;2.78;;;16.60;99.90;;;16.43;84.70;101141.34;4168881;28;20033;-76
2021/08/03 01:03:02;;;;;;;4.95;3.05;;;16.60;99.90;;;16.44;84.34;101135.00;4168764;28;20116;-76
2021/08/03 01:05:03;;;;;;;4.95;2.78;;;16.60;99.90;;;16.39;84.93;101138.25;4150909;28;20521;-75
2021/08/03 01:07:20;;;;;;;3.13;2.60;;;16.70;99.90;;;16.40;84.76;101144.38;4184151;28;20099;-76
2021/08/03 01:09:34;;;;;;;4.63;2.85;;;16.70;99.90;;;16.28;84.91;101136.00;4167672;28;20044;-76
2021/08/03 01:11:44;;;;;;;4.55;2.65;;;16.60;99.90;;;16.14;85.19;101150.16;4151803;28;20472;-76
2021/08/03 01:14:21;;;;;;;5.95;3.25;;;16.50;99.90;;;15.96;85.76;101141.69;4167640;28;20037;-76
2021/08/03 01:17:10;;;;;;;4.20;2.80;;;16.40;99.90;;;15.89;86.19;101151.38;4153729;28;20092;-76
2021/08/03 01:19:26;;;;;;;6.05;2.85;;;16.40;99.90;;;15.88;86.51;101139.09;4156809;28;20045;-76
2021/08/03 01:21:43;;;;;;;3.25;2.70;;;16.30;99.90;;;15.96;86.37;101136.34;4168663;28;20102;-76
2021/08/03 01:24:02;;;;;;;4.68;3.13;;;16.30;99.90;;;15.99;85.67;101146.63;4152365;28;20037;-76
2021/08/03 01:26:48;;;;;;;4.15;3.00;;;16.30;99.90;;;15.89;86.31;101136.25;4157280;28;20036;-76
2021/08/03 01:28:55;;;;;;;4.40;3.10;;;16.30;99.90;;;15.79;86.32;101140.19;4167342;28;20033;-76
2021/08/03 01:31:03;;;;;;;4.00;2.53;;;16.30;99.90;;;15.82;86.76;101148.63;4151607;28;20520;-76
2021/08/03 01:33:06;;;;;;;5.20;3.30;;;16.20;99.90;;;15.67;86.98;101136.31;4167274;28;20025;-76
2021/08/03 01:35:08;;;;;;;7.32;3.00;;;16.20;99.90;;;15.74;86.96;101137.25;4168285;28;20017;-75
2021/08/03 01:37:15;;;;;;;2.95;2.50;;;16.20;99.90;;;15.69;87.14;101150.25;4167446;28;20033;-76
2021/08/03 01:39:22;;;;;;;4.88;2.97;;;16.20;99.90;;;15.76;87.16;101143.22;4167516;28;20029;-76
2021/08/03 01:41:26;;;;;;;2.90;2.60;;;16.10;99.90;;;15.88;87.55;101139.09;4167040;28;20124;-76
2021/08/03 01:43:28;;;;;;;;;;;16.20;99.90;;;15.90;87.53;101147.72;4167608;28;20065;-76
2021/08/03 01:45:31;;;;;;;4.55;3.28;;;16.20;99.90;;;15.74;87.65;101119.44;4172429;28;19967;-76
2021/08/03 01:47:33;;;;;;;4.60;3.03;;;16.20;99.90;;;15.94;87.81;101147.19;4150985;28;20034;-76
2021/08/03 01:49:39;;;;;;;3.17;2.72;;;16.20;99.90;;;16.03;87.08;101150.59;4150403;28;20033;-76
2021/08/03 01:51:42;;;;;;;3.67;2.63;;;16.20;99.90;;;16.03;86.99;101143.44;4166957;28;20030;-76
2021/08/03 01:53:45;;;;;;;5.73;2.67;;;16.30;99.90;;;15.93;87.34;101150.84;4167240;28;20025;-76
2021/08/03 01:55:47;;;;;;;5.32;2.90;;;16.30;99.90;;;15.94;87.61;101154.34;4167042;28;20355;-76
2021/08/03 01:57:48;;;;;;;3.47;3.03;;;16.20;99.90;;;15.71;87.93;101141.06;4183664;28;20025;-76
2021/08/03 01:59:52;;;;;;;4.03;3.08;;;16.20;99.90;;;15.74;88.21;101137.25;4167050;28;20076;-76
2021/08/03 02:01:53;;;;;;;;;;;16.20;99.90;;;15.82;88.14;101142.50;4170619;28;20061;-76
2021/08/03 02:03:56;;;;;;;4.43;3.40;;;16.20;99.90;;;15.79;87.64;101141.00;4179825;28;20384;-76
2021/08/03 02:05:58;;;;;;;5.38;3.08;;;16.20;99.90;;;15.72;88.40;101141.91;4153968;28;20052;-76
2021/08/03 02:07:59;;;;;;;4.22;3.15;;;16.10;99.90;;;15.65;88.55;101122.38;4170255;28;20567;-76
2021/08/03 02:10:01;;;;;;;4.57;3.80;;;16.10;99.90;;;15.57;89.15;101135.72;4170629;28;20029;-76
2021/08/03 02:12:02;;;;;;;5.68;3.45;;;16.00;99.90;;;15.53;89.18;101134.44;4153773;28;20030;-75
2021/08/03 02:14:04;;;;;;;2.97;2.65;;;16.00;99.90;;;15.56;89.22;101132.22;4154037;28;20026;-76
2021/08/03 02:16:05;;;;;;;5.25;3.58;;;15.90;99.90;;;15.61;88.64;101135.19;4170297;28;20068;-76
2021/08/03 02:18:06;;;;;;;4.82;3.42;;;15.90;99.90;;;15.58;89.21;101129.41;4170260;28;20526;-76
2021/08/03 02:20:08;;;;;;;3.90;3.13;;;15.90;99.90;;;15.57;89.56;101135.72;4170025;28;20022;-75
2021/08/03 02:22:09;;;;;;;4.32;3.80;;;15.90;99.90;;;15.39;89.73;101123.53;4186768;28;20096;-76
2021/08/03 02:24:10;;;;;;;5.55;3.42;;;15.90;99.90;;;15.57;89.74;101127.72;4170076;28;20025;-76
2021/08/03 02:26:13;;;;;;;4.72;3.50;;;15.80;99.90;;;15.52;90.07;101130.94;4171318;28;20484;-76
2021/08/03 02:28:14;;;;;;;5.20;3.60;;;15.90;99.90;;;15.39;89.85;101120.88;4171149;28;20030;-76
2021/08/03 02:30:15;;;;;;;5.43;3.45;;;15.80;99.90;;;15.35;90.89;101140.81;4171214;28;20076;-76
2021/08/03 02:32:30;;;;;;;5.53;3.28;;;15.80;99.90;;;15.32;91.03;101138.50;4171256;28;20021;-76
2021/08/03 02:34:57;;;;;;;7.00;3.33;;;15.70;99.90;;;15.29;91.08;101127.44;4170848;28;20031;-75
2021/08/03 02:37:04;;;;;;;5.80;4.22;;;15.70;99.90;;;15.28;91.05;101126.59;4169949;28;20022;-76
2021/08/03 02:39:06;;;;;;;8.93;4.15;;;15.60;99.90;;;15.21;91.08;101130.97;4171350;28;20034;-76
2021/08/03 02:41:08;;;;;;;6.35;4.25;;;15.60;99.90;;;15.15;91.26;101134.31;4169847;28;20104;-75
2021/08/03 02:43:13;;;;;;;5.63;3.88;;;15.60;99.90;;;15.09;91.85;101126.22;4186500;28;20037;-76
2021/08/03 02:45:17;;;;;;;5.07;4.10;;;15.50;99.90;;;15.06;92.04;101124.75;4169493;28;20053;-75
2021/08/03 02:47:25;;;;;;;;;;;15.50;99.90;;;15.11;91.90;101138.34;4170289;28;20115;-76
2021/08/03 02:49:47;;;;;;;7.43;5.07;;;15.50;99.90;;;15.18;91.88;101131.31;4163479;28;19944;-75
2021/08/03 02:51:48;;;;;;;6.55;3.75;;;15.50;99.90;;;15.30;91.75;101139.69;4170009;28;20501;-76
2021/08/03 02:53:50;;;;;;;5.50;4.40;;;15.50;99.90;;;15.14;91.67;101123.88;4169486;28;20040;-76
2021/08/03 02:56:01;;;;;;;7.35;4.40;;;15.50;99.90;;;15.06;92.25;101123.91;4169661;28;20025;-76
2021/08/03 02:58:13;;;;;;;7.75;4.75;;;15.50;99.90;;;15.08;92.32;101130.72;4169468;28;20543;-75
2021/08/03 03:00:14;;;;;;;7.03;4.03;;;15.50;99.90;;;15.23;91.83;101144.09;4169145;28;20033;-75
2021/08/03 03:02:16;;;;;;;5.55;3.75;;;15.50;99.90;;;15.18;91.71;101135.78;4153271;28;20026;-76
2021/08/03 03:04:28;;;;;;;4.82;3.88;;;15.50;99.90;;;15.24;92.04;101138.59;4181465;28;20025;-76
2021/08/03 03:06:33;;;;;;;4.90;3.67;;;15.60;99.90;;;15.21;92.31;101136.28;4169649;28;20411;-76
2021/08/03 03:08:36;;;;;;;5.07;3.88;;;15.60;99.90;;;15.21;92.86;101135.44;4169287;28;20018;-75
2021/08/03 03:10:43;;;;;;;4.72;4.03;;;15.60;99.90;;;15.12;93.04;101126.69;4169303;28;20088;-75
2021/08/03 03:13:14;;;;;;;5.03;4.13;;;15.50;99.90;;;15.20;93.32;101133.81;4168831;28;20032;-75
2021/08/03 03:15:17;;;;;;;7.05;4.28;;;15.50;99.90;;;15.19;92.89;101135.63;4170463;28;20029;-75
2021/08/03 03:17:20;;;;;;;4.07;3.67;;;15.50;99.90;;;15.26;92.90;101131.25;4169267;28;20024;-75
2021/08/03 03:19:22;;;;;;;6.22;3.20;;;15.60;99.90;;;15.41;92.79;101147.28;4170042;28;20292;-76
2021/08/03 03:21:25;;;;;;;3.70;3.13;;;15.60;99.90;;;15.37;92.67;101125.53;4169188;28;20039;-76
2021/08/03 03:23:30;;;;;;;4.43;4.03;;;15.70;99.90;;;15.46;92.37;101128.97;4169132;28;20026;-76
2021/08/03 03:25:31;;;;;;;7.13;5.05;;;15.70;99.90;;;15.58;91.53;101132.06;4168567;28;20056;-75
2021/08/03 03:27:33;;;;;;;5.97;4.53;;;15.70;99.90;;;15.54;90.96;101123.59;4170168;28;20026;-75
2021/08/03 03:29:38;;;;;;;7.18;4.63;;;15.80;99.90;;;15.64;90.99;101126.84;4170323;28;20595;-76
2021/08/03 03:31:41;;;;;;;6.63;4.32;;;15.80;99.90;;;15.75;90.47;101138.88;4168975;28;20397;-76
2021/08/03 03:33:42;;;;;;;4.68;4.07;;;15.90;99.90;;;15.69;90.37;101131.63;4168794;28;20033;-76
2021/08/03 03:35:45;;;;;;;4.63;4.07;;;15.90;99.90;;;15.80;90.10;101139.19;4168892;28;20029;-76
2021/08/03 03:37:47;;;;;;;5.25;4.10;;;16.00;99.90;;;15.78;89.90;101133.19;4169093;28;20021;-76
2021/08/03 03:39:49;;;;;;;4.53;3.55;;;16.00;99.90;;;15.80;90.14;101133.88;4170142;28;20017;-76
2021/08/03 03:41:56;;;;;;;5.05;4.10;;;16.00;99.90;;;15.87;89.69;101132.13;4152516;28;20093;-76
2021/08/03 03:43:57;;;;;;;6.53;3.83;;;16.00;99.90;;;15.87;89.55;101132.13;4152650;28;20152;-76
2021/08/03 03:46:16;;;;;;;8.60;5.28;;;16.00;99.90;;;15.89;89.32;101130.09;4169081;28;20034;-76
2021/08/03 03:48:21;;;;;;;5.13;4.22;;;16.10;99.90;;;15.78;89.45;101117.25;4168691;28;20117;-75
2021/08/03 03:50:36;;;;;;;4.55;4.00;;;16.00;99.90;;;15.89;89.16;101122.13;4152072;28;20473;-75
2021/08/03 03:52:49;;;;;;;7.72;4.40;;;16.10;99.90;;;15.86;89.06;101123.31;4177883;28;20056;-76
2021/08/03 03:54:53;;;;;;;5.10;3.60;;;16.10;99.90;;;15.91;89.14;101133.44;4168593;28;20084;-75
2021/08/03 03:56:58;;;;;;;5.88;4.53;;;16.00;99.90;;;16.07;88.19;101125.25;4168920;28;20487;-75
2021/08/03 03:59:01;;;;;;;5.45;3.90;;;16.10;99.90;;;16.03;88.03;101129.31;4168704;28;20029;-76
2021/08/03 04:01:03;;;;;;;4.95;4.00;;;16.10;99.90;;;15.92;88.29;101116.44;4152367;28;20425;-76
2021/08/03 04:03:06;;;;;;;3.90;3.50;;;16.10;99.90;;;15.92;87.92;101129.72;4152126;28;20030;-75
2021/08/03 04:05:12;;;;;;;4.25;3.85;;;16.10;99.90;;;15.91;88.26;101122.78;4168441;28;20121;-76
2021/08/03 04:07:13;;;;;;;6.05;3.97;;;16.10;99.90;;;15.88;88.77;101118.66;4168424;28;20040;-76
2021/08/03 04:09:24;;;;;;;4.60;3.55;;;16.10;99.90;;;15.93;88.36;101126.06;4151906;28;20068;-76
2021/08/03 04:11:25;;;;;;;6.45;4.28;;;16.10;99.90;;;15.94;87.69;101120.59;4156648;28;20022;-76
2021/08/03 04:13:26;;;;;;;5.07;4.32;;;16.10;99.90;;;15.93;88.41;101126.91;4160017;28;20428;-76
2021/08/03 04:15:28;;;;;;;7.03;4.55;;;16.10;99.90;;;15.83;88.34;101117.56;4168514;28;20013;-75
2021/08/03 04:17:29;;;;;;;4.68;3.78;;;16.10;99.90;;;15.82;88.39;101122.03;4184957;28;20024;-76
2021/08/03 04:19:30;;;;;;;5.57;4.07;;;16.10;99.90;;;15.77;88.32;101115.59;4169337;28;20029;-76
2021/08/03 04:21:31;;;;;;;4.20;3.80;;;16.00;99.90;;;15.81;88.34;101124.88;4168274;28;20025;-76
2021/08/03 04:23:32;;;;;;;6.03;3.95;;;16.00;99.90;;;15.83;88.27;101122.88;4167794;28;20486;-76
2021/08/03 04:25:34;;;;;;;5.68;4.05;;;16.00;99.90;;;15.81;87.89;101114.22;4167561;28;20108;-76
2021/08/03 04:27:35;;;;;;;6.30;4.07;;;16.00;99.90;;;15.86;87.73;101112.66;4168322;28;20115;-75
2021/08/03 04:29:36;;;;;;;4.35;3.90;;;16.00;99.90;;;15.98;86.50;101110.38;4151804;28;20082;-75
2021/08/03 04:31:38;;;;;;;8.30;3.78;;;16.10;99.90;;;15.90;86.67;101111.31;4163607;28;20025;-75
2021/08/03 04:33:39;;;;;;;4.10;3.70;;;16.10;99.90;;;15.91;86.63;101109.47;4168972;28;20032;-75
2021/08/03 04:35:40;;;;;;;5.72;3.88;;;16.10;99.90;;;15.80;87.01;101113.38;4169501;28;20049;-75
2021/08/03 04:37:45;;;;;;;5.30;4.13;;;16.00;99.90;;;15.71;87.30;101101.16;4169358;28;20033;-76
2021/08/03 04:39:46;;;;;;;5.68;3.60;;;16.00;99.90;;;15.72;86.76;101102.00;4164637;28;20029;-76
2021/08/03 04:41:47;;;;;;;4.10;3.38;;;16.00;99.90;;;15.77;86.75;101118.28;4169153;28;20038;-76
2021/08/03 04:43:48;;;;;;;5.22;3.95;;;16.00;99.90;;;15.76;86.52;101113.94;4169128;28;20056;-75
2021/08/03 04:45:49;;;;;;;6.18;3.30;;;16.00;99.90;;;15.78;86.74;101120.72;4167869;28;20108;-76
2021/08/03 04:47:52;;;;;;;3.92;3.53;;;16.00;99.90;;;15.76;87.04;101124.59;4167938;28;20125;-75
2021/08/03 04:49:53;;;;;;;5.15;3.25;;;16.00;99.90;;;15.75;87.29;101131.72;4151053;28;20030;-76
2021/08/03 04:51:54;;;;;;;5.22;4.05;;;15.90;99.90;;;15.75;87.25;101133.56;4168203;28;20022;-76
2021/08/03 04:53:54;;;;;;;5.57;4.30;;;16.00;99.90;;;15.66;87.19;101129.31;4169347;28;20111;-76
2021/08/03 04:55:55;;;;;;;3.60;3.00;;;15.90;99.90;;;15.69;87.50;101134.28;4151318;28;20080;-76
2021/08/03 04:57:56;;;;;;;5.38;3.40;;;15.90;99.90;;;15.66;87.39;101135.47;4168880;28;20025;-76
2021/08/03 04:59:57;;;;;;;6.25;3.47;;;15.90;99.90;;;15.64;87.43;101132.16;4169021;28;20053;-76
2021/08/03 05:02:01;;;;;;;5.45;3.10;;;15.90;99.90;;;15.53;87.58;101131.78;4169089;28;20465;-76
2021/08/03 05:04:02;;;;;;;7.57;3.72;;;15.80;99.90;;;15.44;87.69;101125.66;4167548;28;20030;-76
2021/08/03 05:06:02;;;;;;;4.25;3.10;;;15.80;99.90;;;15.39;88.22;101128.84;4167553;28;20456;-76
2021/08/03 05:08:04;;;;;;;4.28;2.88;;;15.80;99.90;;;15.52;88.03;101143.41;4184240;28;20032;-76
2021/08/03 05:10:13;;;;;;;5.53;3.67;;;15.80;99.90;;;15.44;88.17;101125.66;4168843;28;20038;-76
2021/08/03 05:12:14;;;;;;;6.18;3.40;;;15.80;99.90;;;15.50;88.01;101125.00;4168909;28;20030;-76
2021/08/03 05:14:15;;;;;;;3.30;2.67;;;15.80;99.90;;;15.53;87.88;101115.81;4150938;28;20026;-75
2021/08/03 05:16:16;;;;;;;4.72;3.03;;;15.80;99.90;;;15.49;87.96;101116.19;4167477;28;20065;-76
2021/08/03 05:18:17;;;;;;;5.45;3.40;;;15.90;99.90;;;15.58;88.10;101124.06;4151262;28;20062;-76
2021/08/03 05:20:18;;;;;;;4.25;3.70;;;15.90;99.90;;;15.60;88.03;101130.03;4183638;28;20025;-76
2021/08/03 05:22:19;;;;;;;4.18;3.78;;;15.90;99.90;;;15.65;88.03;101122.38;4167334;28;20024;-76
2021/08/03 05:24:25;;;;;;;8.48;4.93;;;15.90;99.90;;;15.68;87.75;101127.31;4167261;28;20057;-76
2021/08/03 05:26:26;;;;;;;4.93;3.35;;;15.90;99.90;;;15.67;87.40;101120.34;4175246;28;20055;-76
2021/08/03 05:28:27;;;;;;;5.38;3.88;;;16.00;99.90;;;15.66;87.57;101124.00;4168509;28;20049;-76
2021/08/03 05:30:28;;;;;;;5.35;3.53;;;16.00;99.90;;;15.74;87.97;101124.75;4168472;28;20061;-76
2021/08/03 05:32:29;;;;;;;4.70;3.90;;;16.00;99.90;;;15.78;87.59;101133.19;4168812;28;20021;-76
2021/08/03 05:34:30;;;;;;;3.40;3.10;;;16.00;99.90;;;15.63;87.86;101119.03;4168269;28;20033;-76
2021/08/03 05:36:31;;;;;;;4.78;3.83;;;16.00;99.90;;;15.66;88.16;101131.97;4167062;28;20061;-76
2021/08/03 05:38:32;;;;;;;7.78;3.63;;;16.00;99.90;;;15.61;88.36;101127.22;4183710;28;20555;-76
2021/08/03 05:40:33;;;;;;;3.47;3.13;;;16.00;99.90;;;15.66;88.45;101124.81;4167389;28;20021;-76
2021/08/03 05:42:33;;;;;;;3.83;3.13;;;16.00;99.90;;;15.65;88.68;101125.03;4167474;28;20538;-76
2021/08/03 05:44:35;;;;;;;4.70;3.45;;;16.00;99.90;;;15.69;88.75;101118.31;4167181;28;20079;-76
2021/08/03 05:46:36;;;;;;;3.92;3.10;;;16.00;99.90;;;15.60;88.74;101116.75;4168343;28;20036;-77
2021/08/03 05:48:36;;;;;;;5.40;3.55;;;16.00;99.90;;;15.66;88.88;101124.81;4166983;28;20053;-77
2021/08/03 05:50:37;;;;;;;4.88;3.50;;;16.00;99.90;;;15.52;89.15;101116.81;4183564;28;20539;-77
2021/08/03 05:52:39;;;;;;;5.30;3.15;;;16.00;99.90;;;15.48;89.54;101105.69;4167221;28;20021;-77
2021/08/03 05:54:39;;;;;;;5.75;3.75;;;15.90;99.90;;;15.61;89.32;101113.91;4150733;28;20037;-76
2021/08/03 05:56:41;;;;;;;5.30;4.05;;;16.00;99.90;;;15.57;89.07;101114.44;4154060;28;20018;-76
2021/08/03 05:58:42;;;;;;;5.80;3.88;;;16.00;99.90;;;15.64;89.15;101123.38;4167226;28;20026;-76
2021/08/03 06:00:44;;;;;;;5.68;3.67;;;16.00;99.90;;;15.72;88.56;101118.78;4183555;28;20503;-76
2021/08/03 06:02:45;;;;;;;4.03;3.55;;;16.00;99.90;;;15.80;87.92;101099.28;4167236;28;20068;-76
2021/08/03 06:04:46;;;;;;;7.50;3.83;;;16.10;99.90;;;15.85;87.68;101111.03;4183507;28;20032;-76
2021/08/03 06:06:49;;;;;;;5.65;4.05;;;16.10;99.90;;;15.88;87.24;101115.16;4150700;28;20425;-76
2021/08/03 06:08:50;;;;;;;3.95;3.42;;;16.10;99.90;;;15.76;87.72;101114.78;4167200;28;20026;-76
2021/08/03 06:10:53;;;;;;;6.07;3.75;;;16.10;99.90;;;15.69;88.55;101113.00;4150772;28;20037;-77
2021/08/03 06:12:55;;;;;;;4.43;3.47;;;16.10;99.90;;;15.75;88.39;101123.75;4167085;28;20037;-77
2021/08/03 06:15:00;;;;;;;4.20;3.08;;;16.20;99.90;;;15.71;88.66;101114.47;4158482;28;20030;-76
2021/08/03 06:17:12;;;;;;;6.82;4.38;;;16.20;99.90;;;15.58;88.78;101118.75;4168200;28;20037;-76
2021/08/03 06:19:15;;;;;;;7.55;3.90;;;16.10;99.90;;;15.63;88.72;101124.34;4150850;28;20432;-77
2021/08/03 06:21:19;;;;;;;6.22;3.28;;;16.10;99.90;;;15.66;89.33;101129.31;4167162;28;20100;-76
2021/08/03 06:23:22;;;;;;;3.90;3.22;;;16.10;99.90;;;15.67;89.56;101117.69;4167902;28;20468;-74
2021/08/03 06:25:23;;;;;;;3.27;2.97;;;16.10;99.90;;;15.71;89.42;101117.13;4165668;28;20033;-74
2021/08/03 06:27:24;;;;;;;5.45;3.30;;;16.20;99.90;;;15.80;89.45;101125.88;4199557;28;20059;-74
2021/08/03 06:29:27;;;;;;;4.30;3.80;;;16.20;99.90;;;15.89;89.57;101130.09;4183178;28;20071;-75
2021/08/03 06:31:28;;;;;;;6.90;4.65;;;16.20;99.90;;;15.79;91.12;101129.53;4167006;28;20029;-75
2021/08/03 06:33:29;;;;;;;7.70;4.95;;;16.20;99.90;;;15.71;91.63;101132.28;4166912;28;20242;-74
2021/08/03 06:35:31;;;;;;;6.57;4.80;;;16.30;99.90;;;15.71;92.07;101132.28;4166650;28;20040;-75
2021/08/03 06:37:32;;;;;;;7.10;4.47;;;16.20;99.90;;;15.76;92.10;101116.59;4183511;28;20108;-75
2021/08/03 06:39:33;;;;;;;6.53;4.60;;;16.20;99.90;;;15.75;92.60;101107.78;4167213;28;20025;-74
2021/08/03 06:41:44;;;;;;;5.57;4.60;;;16.30;99.90;;;15.82;92.57;101108.72;4183463;28;20033;-74
2021/08/03 06:43:59;;;;;;;5.30;4.70;;;16.20;99.90;;;15.78;92.84;101114.59;4166547;28;20057;-75
2021/08/03 06:46:11;;;;;;;5.00;4.25;;;16.20;99.90;;;15.79;92.70;101103.78;4167095;28;20100;-75
2021/08/03 06:48:41;;;;;;;7.60;4.22;;;16.30;99.90;;;15.68;93.33;101117.50;4168706;28;20041;-75
2021/08/03 06:51:07;;;;;;;4.50;3.63;;;16.30;99.90;;;15.81;93.62;101132.84;4155401;28;20064;-74
2021/08/03 06:53:11;;;;;;;5.93;4.38;;;16.30;99.90;;;15.77;93.38;101120.94;4169490;28;20106;-75
2021/08/03 06:55:14;;;;;;;5.75;4.65;;;16.20;99.90;;;15.73;93.31;101136.41;4153302;28;20101;-75
2021/08/03 06:57:17;;;;;;;4.97;4.47;;;16.20;99.90;;;15.79;93.27;101141.00;4169673;28;20030;-75
2021/08/03 06:59:30;;;;;;;5.45;4.40;;;16.30;99.90;;;15.89;92.92;101141.56;4153017;28;20033;-75
2021/08/03 07:01:44;;;;;;;7.15;4.50;;;16.30;99.90;;;15.88;93.24;101141.75;4169214;28;20085;-75
2021/08/03 07:03:54;;;;;;;5.57;4.50;;;16.30;99.90;;;15.85;93.13;101140.31;4161975;28;20032;-75
2021/08/03 07:05:57;;;;;;;4.95;4.45;;;16.30;99.90;;;15.83;93.55;101139.63;4169500;28;20033;-74
2021/08/03 07:07:59;;;;;;;5.70;4.67;;;16.30;99.90;;;15.84;93.97;101145.78;4169523;28;20025;-74
2021/08/03 07:10:04;;;;;;;5.07;4.35;;;16.30;99.90;;;15.95;93.20;101134.69;4169560;28;20045;-75
2021/08/03 07:12:06;;;;;;;5.63;5.07;;;16.40;99.90;;;15.98;93.33;101134.34;4185781;28;20033;-74
2021/08/03 07:14:07;;;;;;;5.80;5.13;;;16.50;99.90;;;16.08;93.29;101139.41;4170443;28;20037;-75
2021/08/03 07:16:09;;;;;;;5.65;5.03;;;16.50;99.90;;;16.02;93.37;101132.97;4170507;28;20477;-74
2021/08/03 07:18:11;;;;;;;8.52;4.72;;;16.60;99.90;;;16.16;93.66;101148.13;4170550;28;20041;-74
2021/08/03 07:20:14;;;;;;;4.55;4.00;;;16.60;99.90;;;16.21;93.60;101145.75;4170312;28;20108;-75
2021/08/03 07:22:16;;;;;;;12.75;5.47;;;16.70;99.90;;;16.21;93.64;101143.09;4153161;28;20180;-75
2021/08/03 07:24:18;;;;;;;6.68;4.55;;;16.70;99.90;;;16.28;93.61;101154.66;4169196;28;20028;-75
2021/08/03 07:26:19;;;;;;;4.35;3.92;;;16.80;99.90;;;16.32;93.36;101142.63;4159280;28;20171;-74
2021/08/03 07:28:20;;;;;;;8.93;5.50;;;16.80;99.90;;;16.44;92.46;101135.84;4169092;28;20082;-74
2021/08/03 07:30:23;;;;;;;6.88;4.65;;;16.90;99.90;;;16.45;91.83;101142.00;4169074;28;20022;-74
2021/08/03 07:32:24;;;;;;;6.22;4.28;;;16.90;99.90;;;16.30;92.17;101139.34;4169065;28;20025;-75
2021/08/03 07:34:24;;;;;;;4.40;4.00;;;16.90;99.90;;;16.29;92.26;101132.34;4168907;28;20032;-75
2021/08/03 07:36:25;;;;;;;5.93;5.32;;;16.80;99.90;;;16.28;92.66;101138.69;4169174;28;20022;-74
2021/08/03 07:38:26;;;;;;;9.07;5.57;;;16.80;99.90;;;16.26;92.87;101140.72;4169040;28;20030;-75
2021/08/03 07:40:27;;;;;;;8.52;5.50;;;16.80;99.90;;;16.22;93.22;101135.94;4170036;28;20060;-75
2021/08/03 07:42:28;;;;;;;8.07;5.88;;;16.80;99.90;;;16.23;93.59;101146.41;4170173;28;20049;-75
2021/08/03 07:44:29;;;;;;;6.85;4.90;;;16.80;99.90;;;16.27;93.44;101149.53;4168676;28;20056;-74
2021/08/03 07:46:32;;;;;;;6.57;5.00;;;16.80;99.90;;;16.31;93.51;101156.94;4170027;28;20120;-75
2021/08/03 07:48:34;;;;;;;6.40;5.78;;;16.70;99.90;;;16.20;94.50;101160.06;4168385;28;20516;-75
2021/08/03 07:50:36;;;;;;;6.15;5.15;;;16.70;99.90;;;16.24;95.08;101157.88;4168806;28;20096;-75
2021/08/03 07:52:37;;;;;;;6.35;5.68;;;16.70;99.90;;;16.14;94.48;101151.97;4168693;28;20134;-74
2021/08/03 07:54:38;;;;;;;8.55;4.78;;;16.80;99.90;;;16.18;95.35;101155.94;4169781;28;20022;-75
2021/08/03 07:56:39;;;;;;;6.03;4.75;;;16.70;99.90;;;16.23;94.93;101159.69;4169752;28;20075;-74
2021/08/03 07:58:41;;;;;;;8.07;5.50;;;16.70;99.90;;;16.30;94.63;101159.81;4167714;28;20044;-74
2021/08/03 08:00:41;;;;;;;6.78;5.40;;;16.80;99.90;;;16.25;94.84;101157.69;4169891;28;20041;-75
2021/08/03 08:02:42;;;;;;;5.75;5.20;;;16.80;99.90;;;16.33;94.85;101162.09;4168591;28;20053;-75
2021/08/03 08:04:43;;;;;;;7.90;5.32;;;16.80;99.90;;;16.35;95.02;101158.25;4184719;28;20577;-75
2021/08/03 08:06:44;;;;;;;6.10;5.10;;;16.90;99.90;;;16.26;94.95;101154.00;4168841;28;20033;-75
2021/08/03 08:08:45;;;;;;;5.38;4.88;;;16.90;99.90;;;16.31;94.93;101156.94;4161313;28;20053;-75
2021/08/03 08:10:46;;;;;;;6.88;5.25;;;16.90;99.90;;;16.33;94.78;101151.44;4151969;28;20018;-74
2021/08/03 08:12:47;;;;;;;9.40;5.80;;;17.00;99.90;;;16.31;94.62;101167.59;4167737;28;20025;-75
2021/08/03 08:14:48;;;;;;;7.78;4.90;;;17.00;99.90;;;16.36;94.46;101167.91;4168392;28;20021;-74
2021/08/03 08:16:49;;;;;;;5.07;4.57;;;17.00;99.90;;;16.49;94.04;101160.06;4168387;28;20076;-75
2021/08/03 08:18:50;;;;;;;8.07;4.47;;;17.10;99.90;;;16.54;94.30;101151.56;4184344;28;20029;-75
2021/08/03 08:20:51;;;;;;;8.25;4.75;;;17.20;99.90;;;16.67;92.85;101172.22;4168158;28;20056;-74
2021/08/03 08:22:52;;;;;;;6.43;4.80;;;17.30;99.90;;;16.50;92.81;101159.06;4169513;28;20093;-74
2021/08/03 08:24:53;;;;;;;5.43;4.60;;;17.30;99.90;;;16.04;90.06;101177.03;4168063;28;20057;-75
2021/08/03 08:26:54;;;;;;;6.38;4.47;;;17.10;99.90;;;16.24;90.88;101177.34;4163838;28;20061;-75
2021/08/03 08:28:55;;;;;;;4.45;3.30;;;17.10;99.90;;;16.34;90.13;101161.91;4167851;28;20083;-74
2021/08/03 08:30:56;;;;;;;7.20;4.60;;;17.10;99.90;;;16.40;90.46;101163.84;4168110;28;20049;-74
2021/08/03 08:32:57;;;;;;;6.65;4.28;;;17.00;99.90;;;16.43;91.37;101182.09;4144121;28;20026;-74
2021/08/03 08:34:58;;;;;;;6.57;5.07;;;17.00;99.90;;;16.31;91.53;101172.09;4151523;28;20049;-75
2021/08/03 08:36:59;;;;;;;7.05;4.82;;;17.00;99.90;;;16.25;92.23;101181.63;4167903;28;20126;-75